sensor_id;sensor_type;location;lat;lon;timestamp;pressure;altitude;pressure_sealevel;temperature;humidity
73564;BME280;61834;50.196;6.454;2022-12-29T00:01:46;95418.19;;;8.31;100.00
73564;BME280;61834;50.196;6.454;2022-12-29T00:04:13;95422.06;;;8.33;100.00
73564;BME280;61834;50.196;6.454;2022-12-29T00:06:39;95397.53;;;8.30;100.00
73564;BME280;61834;50.196;6.454;2022-12-29T00:09:05;95395.97;;;8.36;100.00
73564;BME280;61834;50.196;6.454;2022-12-29T00:11:30;95406.88;;;8.36;100.00
73564;BME280;61834;50.196;6.454;2022-12-29T00:13:59;95411.16;;;8.37;100.00
73564;BME280;61834;50.196;6.454;2022-12-29T00:16:44;95405.69;;;8.30;100.00
73564;BME280;61834;50.196;6.454;2022-12-29T00:19:11;95399.84;;;8.35;100.00
73564;BME280;61834;50.196;6.454;2022-12-29T00:21:56;95409.97;;;8.38;100.00
73564;BME280;61834;50.196;6.454;2022-12-29T00:24:40;95414.28;;;8.39;100.00
73564;BME280;61834;50.196;6.454;2022-12-29T00:27:23;95439.56;;;8.46;99.68
73564;BME280;61834;50.196;6.454;2022-12-29T00:30:11;95434.13;;;8.43;99.56
73564;BME280;61834;50.196;6.454;2022-12-29T00:32:56;95435.28;;;8.49;98.81
73564;BME280;61834;50.196;6.454;2022-12-29T00:35:45;95431.78;;;8.48;98.37
73564;BME280;61834;50.196;6.454;2022-12-29T00:38:13;95425.91;;;8.57;96.96
73564;BME280;61834;50.196;6.454;2022-12-29T00:40:57;95408.38;;;8.58;97.20
73564;BME280;61834;50.196;6.454;2022-12-29T00:43:41;95401.78;;;8.52;98.36
73564;BME280;61834;50.196;6.454;2022-12-29T00:46:25;95413.47;;;8.56;98.10
73564;BME280;61834;50.196;6.454;2022-12-29T00:48:50;95400.97;;;8.51;97.13
73564;BME280;61834;50.196;6.454;2022-12-29T00:51:35;95400.19;;;8.61;97.29
73564;BME280;61834;50.196;6.454;2022-12-29T00:54:00;95409.94;;;8.55;97.30
73564;BME280;61834;50.196;6.454;2022-12-29T00:56:26;95406.03;;;8.53;97.55
73564;BME280;61834;50.196;6.454;2022-12-29T00:58:51;95387.34;;;8.55;97.47
73564;BME280;61834;50.196;6.454;2022-12-29T01:01:16;95390.84;;;8.62;96.67
73564;BME280;61834;50.196;6.454;2022-12-29T01:03:42;95396.31;;;8.45;97.16
73564;BME280;61834;50.196;6.454;2022-12-29T01:06:09;95399.44;;;8.54;96.95
73564;BME280;61834;50.196;6.454;2022-12-29T01:08:36;95388.88;;;8.66;96.09
73564;BME280;61834;50.196;6.454;2022-12-29T01:11:12;95384.63;;;8.55;96.61
73564;BME280;61834;50.196;6.454;2022-12-29T01:13:42;95387.00;;;8.49;97.71
73564;BME280;61834;50.196;6.454;2022-12-29T01:16:10;95376.41;;;8.62;97.04
73564;BME280;61834;50.196;6.454;2022-12-29T01:18:35;95367.84;;;8.56;96.87
73564;BME280;61834;50.196;6.454;2022-12-29T01:21:05;95383.47;;;8.52;97.56
73564;BME280;61834;50.196;6.454;2022-12-29T01:23:31;95374.09;;;8.50;97.97
73564;BME280;61834;50.196;6.454;2022-12-29T01:25:56;95370.25;;;8.44;98.60
73564;BME280;61834;50.196;6.454;2022-12-29T01:28:23;95363.25;;;8.36;98.79
73564;BME280;61834;50.196;6.454;2022-12-29T01:30:51;95350.38;;;8.40;99.47
73564;BME280;61834;50.196;6.454;2022-12-29T01:33:19;95341.06;;;8.27;100.00
73564;BME280;61834;50.196;6.454;2022-12-29T01:35:44;95351.56;;;8.32;100.00
73564;BME280;61834;50.196;6.454;2022-12-29T01:38:10;95344.16;;;8.32;100.00
73564;BME280;61834;50.196;6.454;2022-12-29T01:40:43;95336.00;;;8.29;100.00
73564;BME280;61834;50.196;6.454;2022-12-29T01:43:11;95336.38;;;8.31;100.00
73564;BME280;61834;50.196;6.454;2022-12-29T01:45:41;95340.66;;;8.32;100.00
73564;BME280;61834;50.196;6.454;2022-12-29T01:48:09;95323.88;;;8.37;100.00
73564;BME280;61834;50.196;6.454;2022-12-29T01:50:39;95324.31;;;8.25;100.00
73564;BME280;61834;50.196;6.454;2022-12-29T01:53:09;95337.53;;;8.26;100.00
73564;BME280;61834;50.196;6.454;2022-12-29T01:55:41;95335.19;;;8.35;100.00
73564;BME280;61834;50.196;6.454;2022-12-29T01:58:08;95344.50;;;8.45;100.00
73564;BME280;61834;50.196;6.454;2022-12-29T02:00:35;95335.97;;;8.39;100.00
73564;BME280;61834;50.196;6.454;2022-12-29T02:03:02;95325.84;;;8.36;100.00
73564;BME280;61834;50.196;6.454;2022-12-29T02:05:49;95330.47;;;8.46;99.97
73564;BME280;61834;50.196;6.454;2022-12-29T02:08:18;95330.06;;;8.51;100.00
73564;BME280;61834;50.196;6.454;2022-12-29T02:10:44;95317.22;;;8.48;100.00
73564;BME280;61834;50.196;6.454;2022-12-29T02:13:10;95334.00;;;8.47;99.84
73564;BME280;61834;50.196;6.454;2022-12-29T02:24:04;95321.13;;;8.54;99.52
73564;BME280;61834;50.196;6.454;2022-12-29T02:32:32;95310.63;;;8.42;100.00
73564;BME280;61834;50.196;6.454;2022-12-29T02:35:41;95308.31;;;8.44;100.00
73564;BME280;61834;50.196;6.454;2022-12-29T02:41:06;95297.03;;;8.35;100.00
73564;BME280;61834;50.196;6.454;2022-12-29T02:43:54;95302.84;;;8.41;100.00
73564;BME280;61834;50.196;6.454;2022-12-29T02:46:30;95314.16;;;8.36;100.00
73564;BME280;61834;50.196;6.454;2022-12-29T02:49:15;95319.56;;;8.46;100.00
73564;BME280;61834;50.196;6.454;2022-12-29T02:54:31;95298.56;;;8.40;100.00
73564;BME280;61834;50.196;6.454;2022-12-29T03:54:08;95273.69;;;8.31;100.00
73564;BME280;61834;50.196;6.454;2022-12-29T03:56:34;95262.78;;;8.27;100.00
73564;BME280;61834;50.196;6.454;2022-12-29T03:59:01;95265.09;;;8.32;100.00
73564;BME280;61834;50.196;6.454;2022-12-29T04:01:36;95268.22;;;8.31;100.00
73564;BME280;61834;50.196;6.454;2022-12-29T04:04:02;95270.56;;;8.32;100.00
73564;BME280;61834;50.196;6.454;2022-12-29T04:06:28;95261.56;;;8.35;100.00
73564;BME280;61834;50.196;6.454;2022-12-29T04:08:59;95250.28;;;8.37;100.00
73564;BME280;61834;50.196;6.454;2022-12-29T04:11:26;95248.72;;;8.39;100.00
73564;BME280;61834;50.196;6.454;2022-12-29T04:13:53;95251.84;;;8.34;100.00
73564;BME280;61834;50.196;6.454;2022-12-29T04:16:22;95257.66;;;8.36;100.00
73564;BME280;61834;50.196;6.454;2022-12-29T04:18:49;95267.44;;;8.30;100.00
73564;BME280;61834;50.196;6.454;2022-12-29T04:21:15;95254.19;;;8.32;100.00
73564;BME280;61834;50.196;6.454;2022-12-29T04:23:42;95255.34;;;8.35;100.00
73564;BME280;61834;50.196;6.454;2022-12-29T04:26:09;95253.00;;;8.33;100.00
73564;BME280;61834;50.196;6.454;2022-12-29T04:28:44;95262.31;;;8.43;100.00
73564;BME280;61834;50.196;6.454;2022-12-29T04:31:23;95267.03;;;8.39;100.00
73564;BME280;61834;50.196;6.454;2022-12-29T04:33:49;95271.69;;;8.42;100.00
73564;BME280;61834;50.196;6.454;2022-12-29T04:36:15;95260.78;;;8.42;100.00
73564;BME280;61834;50.196;6.454;2022-12-29T04:38:42;95240.13;;;8.41;100.00
73564;BME280;61834;50.196;6.454;2022-12-29T04:41:08;95258.44;;;8.40;100.00
73564;BME280;61834;50.196;6.454;2022-12-29T04:43:36;95254.94;;;8.40;100.00
73564;BME280;61834;50.196;6.454;2022-12-29T04:46:32;95255.69;;;8.44;100.00
73564;BME280;61834;50.196;6.454;2022-12-29T04:49:00;95255.72;;;8.40;100.00
73564;BME280;61834;50.196;6.454;2022-12-29T04:51:59;95240.88;;;8.45;99.62
73564;BME280;61834;50.196;6.454;2022-12-29T04:54:25;95234.66;;;8.44;100.00
73564;BME280;61834;50.196;6.454;2022-12-29T04:57:13;95234.28;;;8.42;100.00
73564;BME280;61834;50.196;6.454;2022-12-29T04:59:39;95246.34;;;8.45;100.00
73564;BME280;61834;50.196;6.454;2022-12-29T05:02:04;95240.88;;;8.48;100.00
73564;BME280;61834;50.196;6.454;2022-12-29T05:04:32;95243.59;;;8.48;100.00
73564;BME280;61834;50.196;6.454;2022-12-29T05:06:58;95249.06;;;8.48;99.99
73564;BME280;61834;50.196;6.454;2022-12-29T05:09:24;95244.03;;;8.40;100.00
73564;BME280;61834;50.196;6.454;2022-12-29T05:11:50;95232.66;;;8.52;99.79
73564;BME280;61834;50.196;6.454;2022-12-29T05:14:16;95239.75;;;8.42;100.00
73564;BME280;61834;50.196;6.454;2022-12-29T05:16:42;95235.03;;;8.46;100.00
73564;BME280;61834;50.196;6.454;2022-12-29T05:19:08;95233.91;;;8.40;100.00
73564;BME280;61834;50.196;6.454;2022-12-29T05:21:34;95242.06;;;8.44;100.00
73564;BME280;61834;50.196;6.454;2022-12-29T05:24:00;95229.63;;;8.39;100.00
73564;BME280;61834;50.196;6.454;2022-12-29T05:26:26;95241.28;;;8.43;100.00
73564;BME280;61834;50.196;6.454;2022-12-29T05:29:03;95231.19;;;8.33;100.00
73564;BME280;61834;50.196;6.454;2022-12-29T05:31:29;95228.44;;;8.40;100.00
73564;BME280;61834;50.196;6.454;2022-12-29T05:33:54;95225.31;;;8.42;100.00
73564;BME280;61834;50.196;6.454;2022-12-29T05:36:20;95223.78;;;8.37;100.00
73564;BME280;61834;50.196;6.454;2022-12-29T05:38:51;95223.38;;;8.42;100.00
73564;BME280;61834;50.196;6.454;2022-12-29T05:41:17;95214.41;;;8.45;100.00
73564;BME280;61834;50.196;6.454;2022-12-29T05:43:58;95215.22;;;8.39;100.00
73564;BME280;61834;50.196;6.454;2022-12-29T05:46:50;95222.19;;;8.47;100.00
73564;BME280;61834;50.196;6.454;2022-12-29T05:49:29;95218.72;;;8.39;100.00
73564;BME280;61834;50.196;6.454;2022-12-29T05:52:02;95233.94;;;8.33;100.00
73564;BME280;61834;50.196;6.454;2022-12-29T05:54:28;95220.66;;;8.42;100.00
73564;BME280;61834;50.196;6.454;2022-12-29T05:56:54;95228.44;;;8.44;100.00
73564;BME280;61834;50.196;6.454;2022-12-29T05:59:21;95233.91;;;8.37;100.00
73564;BME280;61834;50.196;6.454;2022-12-29T06:01:47;95203.88;;;8.44;100.00
73564;BME280;61834;50.196;6.454;2022-12-29T06:04:13;95239.75;;;8.39;100.00
73564;BME280;61834;50.196;6.454;2022-12-29T06:06:38;95259.59;;;8.43;100.00
73564;BME280;61834;50.196;6.454;2022-12-29T06:09:09;95281.47;;;8.32;100.00
73564;BME280;61834;50.196;6.454;2022-12-29T06:11:36;95270.97;;;8.27;100.00
73564;BME280;61834;50.196;6.454;2022-12-29T06:14:02;95291.97;;;8.34;100.00
73564;BME280;61834;50.196;6.454;2022-12-29T06:16:28;95284.94;;;8.36;99.64
73564;BME280;61834;50.196;6.454;2022-12-29T06:18:57;95302.09;;;8.26;99.27
73564;BME280;61834;50.196;6.454;2022-12-29T06:21:23;95315.72;;;8.26;98.97
73564;BME280;61834;50.196;6.454;2022-12-29T06:23:48;95327.81;;;8.32;97.87
73564;BME280;61834;50.196;6.454;2022-12-29T06:26:14;95317.31;;;8.10;98.96
73564;BME280;61834;50.196;6.454;2022-12-29T06:28:40;95316.16;;;8.00;99.00
73564;BME280;61834;50.196;6.454;2022-12-29T06:31:09;95336.03;;;7.97;98.77
73564;BME280;61834;50.196;6.454;2022-12-29T06:33:35;95347.72;;;7.80;99.41
73564;BME280;61834;50.196;6.454;2022-12-29T06:36:01;95344.59;;;7.92;97.80
73564;BME280;61834;50.196;6.454;2022-12-29T06:38:26;95326.69;;;7.88;98.74
73564;BME280;61834;50.196;6.454;2022-12-29T06:40:52;95335.25;;;7.93;97.14
73564;BME280;61834;50.196;6.454;2022-12-29T06:43:36;95338.00;;;7.79;98.71
73564;BME280;61834;50.196;6.454;2022-12-29T06:46:23;95332.94;;;7.70;98.63
73564;BME280;61834;50.196;6.454;2022-12-29T06:48:48;95334.09;;;7.77;98.76
73564;BME280;61834;50.196;6.454;2022-12-29T06:51:14;95327.88;;;7.69;97.90
73564;BME280;61834;50.196;6.454;2022-12-29T06:53:40;95325.53;;;7.60;99.55
73564;BME280;61834;50.196;6.454;2022-12-29T06:56:06;95327.47;;;7.63;97.84
73564;BME280;61834;50.196;6.454;2022-12-29T06:58:31;95332.16;;;7.77;97.62
73564;BME280;61834;50.196;6.454;2022-12-29T07:00:57;95327.09;;;7.58;98.60
73564;BME280;61834;50.196;6.454;2022-12-29T07:03:23;95315.44;;;7.57;98.35
73564;BME280;61834;50.196;6.454;2022-12-29T07:05:48;95327.47;;;7.56;98.14
73564;BME280;61834;50.196;6.454;2022-12-29T07:08:14;95327.84;;;7.51;97.80
73564;BME280;61834;50.196;6.454;2022-12-29T07:10:40;95324.38;;;7.44;98.45
73564;BME280;61834;50.196;6.454;2022-12-29T07:13:06;95331.75;;;7.43;98.62
73564;BME280;61834;50.196;6.454;2022-12-29T07:15:38;95350.84;;;7.57;96.04
73564;BME280;61834;50.196;6.454;2022-12-29T07:18:03;95347.69;;;7.45;96.60
73564;BME280;61834;50.196;6.454;2022-12-29T07:20:30;95344.97;;;7.48;97.80
73564;BME280;61834;50.196;6.454;2022-12-29T07:22:56;95349.66;;;7.41;96.54
73564;BME280;61834;50.196;6.454;2022-12-29T07:25:22;95359.38;;;7.42;97.16
73564;BME280;61834;50.196;6.454;2022-12-29T07:27:48;95353.16;;;7.48;96.48
73564;BME280;61834;50.196;6.454;2022-12-29T07:30:14;95376.09;;;7.47;95.75
73564;BME280;61834;50.196;6.454;2022-12-29T07:32:40;95383.44;;;7.33;96.16
73564;BME280;61834;50.196;6.454;2022-12-29T07:35:06;95381.53;;;7.44;95.89
73564;BME280;61834;50.196;6.454;2022-12-29T07:37:32;95409.94;;;7.46;95.42
73564;BME280;61834;50.196;6.454;2022-12-29T07:39:58;95378.00;;;7.36;95.80
73564;BME280;61834;50.196;6.454;2022-12-29T07:42:24;95407.19;;;7.32;96.31
73564;BME280;61834;50.196;6.454;2022-12-29T07:44:51;95406.44;;;7.42;95.04
73564;BME280;61834;50.196;6.454;2022-12-29T07:47:55;95393.97;;;7.38;95.17
73564;BME280;61834;50.196;6.454;2022-12-29T07:50:20;95379.19;;;7.49;94.03
73564;BME280;61834;50.196;6.454;2022-12-29T07:52:46;95397.47;;;7.38;95.28
73564;BME280;61834;50.196;6.454;2022-12-29T07:55:14;95394.00;;;7.48;95.01
73564;BME280;61834;50.196;6.454;2022-12-29T07:57:40;95394.34;;;7.36;96.17
73564;BME280;61834;50.196;6.454;2022-12-29T08:00:06;95407.19;;;7.39;95.37
73564;BME280;61834;50.196;6.454;2022-12-29T08:02:37;95405.28;;;7.47;94.83
73564;BME280;61834;50.196;6.454;2022-12-29T08:05:03;95409.16;;;7.42;94.67
73564;BME280;61834;50.196;6.454;2022-12-29T08:07:29;95420.84;;;7.53;94.27
73564;BME280;61834;50.196;6.454;2022-12-29T08:09:54;95419.28;;;7.45;94.07
73564;BME280;61834;50.196;6.454;2022-12-29T08:12:20;95416.94;;;7.47;95.02
73564;BME280;61834;50.196;6.454;2022-12-29T08:14:46;95425.50;;;7.46;95.09
73564;BME280;61834;50.196;6.454;2022-12-29T08:17:11;95427.06;;;7.47;94.50
73564;BME280;61834;50.196;6.454;2022-12-29T08:19:37;95423.94;;;7.52;94.62
73564;BME280;61834;50.196;6.454;2022-12-29T08:22:03;95431.38;;;7.62;94.50
73564;BME280;61834;50.196;6.454;2022-12-29T08:24:28;95423.53;;;7.46;94.18
73564;BME280;61834;50.196;6.454;2022-12-29T08:26:54;95428.63;;;7.58;93.96
73564;BME280;61834;50.196;6.454;2022-12-29T08:29:20;95435.63;;;7.59;93.99
73564;BME280;61834;50.196;6.454;2022-12-29T08:31:47;95437.59;;;7.62;93.26
73564;BME280;61834;50.196;6.454;2022-12-29T08:34:13;95447.28;;;7.56;92.79
73564;BME280;61834;50.196;6.454;2022-12-29T08:36:38;95450.78;;;7.53;94.41
73564;BME280;61834;50.196;6.454;2022-12-29T08:39:04;95457.84;;;7.68;92.46
73564;BME280;61834;50.196;6.454;2022-12-29T08:41:30;95477.25;;;7.53;93.71
73564;BME280;61834;50.196;6.454;2022-12-29T08:43:56;95482.72;;;7.67;92.17
73564;BME280;61834;50.196;6.454;2022-12-29T08:46:22;95474.97;;;7.72;92.49
73564;BME280;61834;50.196;6.454;2022-12-29T08:48:47;95459.00;;;7.67;92.87
73564;BME280;61834;50.196;6.454;2022-12-29T08:51:13;95471.03;;;7.59;93.23
73564;BME280;61834;50.196;6.454;2022-12-29T08:53:39;95462.88;;;7.56;93.45
73564;BME280;61834;50.196;6.454;2022-12-29T08:56:05;95470.28;;;7.62;93.47
73564;BME280;61834;50.196;6.454;2022-12-29T08:58:41;95456.28;;;7.64;93.16
73564;BME280;61834;50.196;6.454;2022-12-29T09:01:07;95469.09;;;7.63;93.38
73564;BME280;61834;50.196;6.454;2022-12-29T09:03:32;95470.69;;;7.79;92.61
73564;BME280;61834;50.196;6.454;2022-12-29T09:05:58;95463.31;;;7.79;93.33
73564;BME280;61834;50.196;6.454;2022-12-29T09:08:24;95465.97;;;7.54;93.71
73564;BME280;61834;50.196;6.454;2022-12-29T09:10:49;95470.66;;;7.61;94.35
73564;BME280;61834;50.196;6.454;2022-12-29T09:13:16;95474.13;;;7.47;95.47
73564;BME280;61834;50.196;6.454;2022-12-29T09:15:42;95481.88;;;7.38;96.40
73564;BME280;61834;50.196;6.454;2022-12-29T09:18:10;95485.00;;;7.40;96.63
73564;BME280;61834;50.196;6.454;2022-12-29T09:20:35;95484.25;;;7.50;97.39
73564;BME280;61834;50.196;6.454;2022-12-29T09:23:02;95481.88;;;7.42;97.44
73564;BME280;61834;50.196;6.454;2022-12-29T09:25:28;95481.91;;;7.45;97.52
73564;BME280;61834;50.196;6.454;2022-12-29T09:27:57;95495.50;;;7.42;98.03
73564;BME280;61834;50.196;6.454;2022-12-29T09:30:23;95486.59;;;7.59;96.28
73564;BME280;61834;50.196;6.454;2022-12-29T09:32:49;95492.44;;;7.54;96.22
73564;BME280;61834;50.196;6.454;2022-12-29T09:35:15;95487.38;;;7.56;95.99
73564;BME280;61834;50.196;6.454;2022-12-29T09:37:42;95497.13;;;7.60;95.65
73564;BME280;61834;50.196;6.454;2022-12-29T09:40:24;95497.91;;;7.71;94.76
73564;BME280;61834;50.196;6.454;2022-12-29T09:45:49;95505.69;;;7.73;94.51
73564;BME280;61834;50.196;6.454;2022-12-29T09:48:25;95523.63;;;7.78;93.68
73564;BME280;61834;50.196;6.454;2022-12-29T09:50:57;95520.09;;;7.70;94.25
73564;BME280;61834;50.196;6.454;2022-12-29T09:53:43;95519.75;;;7.86;93.43
73564;BME280;61834;50.196;6.454;2022-12-29T09:56:19;95527.53;;;7.84;93.48
73564;BME280;61834;50.196;6.454;2022-12-29T09:59:04;95513.44;;;7.60;93.63
73564;BME280;61834;50.196;6.454;2022-12-29T10:01:38;95508.41;;;7.73;92.35
73564;BME280;61834;50.196;6.454;2022-12-29T10:04:06;95511.56;;;7.79;92.28
73564;BME280;61834;50.196;6.454;2022-12-29T10:06:46;95520.09;;;7.73;92.50
73564;BME280;61834;50.196;6.454;2022-12-29T10:23:27;95549.72;;;7.86;88.71
73564;BME280;61834;50.196;6.454;2022-12-29T10:25:56;95537.63;;;7.83;89.63
73564;BME280;61834;50.196;6.454;2022-12-29T10:28:34;95528.66;;;7.72;89.69
73564;BME280;61834;50.196;6.454;2022-12-29T10:31:05;95530.22;;;7.66;88.32
73564;BME280;61834;50.196;6.454;2022-12-29T10:33:36;95539.94;;;7.70;88.54
73564;BME280;61834;50.196;6.454;2022-12-29T10:36:30;95542.63;;;7.60;88.13
73564;BME280;61834;50.196;6.454;2022-12-29T10:39:33;95540.31;;;7.62;88.19
73564;BME280;61834;50.196;6.454;2022-12-29T10:44:41;95550.47;;;7.76;88.09
73564;BME280;61834;50.196;6.454;2022-12-29T10:47:12;95532.16;;;7.80;86.74
73564;BME280;61834;50.196;6.454;2022-12-29T10:49:40;95547.00;;;7.86;87.48
73564;BME280;61834;50.196;6.454;2022-12-29T10:52:08;95548.19;;;7.99;87.86
73564;BME280;61834;50.196;6.454;2022-12-29T10:55:00;95545.41;;;7.85;87.04
73564;BME280;61834;50.196;6.454;2022-12-29T10:57:39;95560.19;;;7.77;87.78
73564;BME280;61834;50.196;6.454;2022-12-29T11:00:20;95562.97;;;7.94;87.34
73564;BME280;61834;50.196;6.454;2022-12-29T11:05:44;95553.63;;;7.92;85.88
73564;BME280;61834;50.196;6.454;2022-12-29T11:08:17;95557.91;;;7.93;86.00
73564;BME280;61834;50.196;6.454;2022-12-29T11:10:45;95557.91;;;7.89;85.41
73564;BME280;61834;50.196;6.454;2022-12-29T11:13:24;95559.41;;;7.76;85.98
73564;BME280;61834;50.196;6.454;2022-12-29T11:15:51;95558.25;;;7.73;88.38
73564;BME280;61834;50.196;6.454;2022-12-29T11:18:23;95562.19;;;7.94;84.80
73564;BME280;61834;50.196;6.454;2022-12-29T11:21:01;95569.13;;;7.73;85.81
73564;BME280;61834;50.196;6.454;2022-12-29T11:23:35;95568.78;;;7.82;84.64
73564;BME280;61834;50.196;6.454;2022-12-29T11:26:16;95571.09;;;7.77;86.10
73564;BME280;61834;50.196;6.454;2022-12-29T11:28:45;95571.53;;;7.86;85.26
73564;BME280;61834;50.196;6.454;2022-12-29T11:31:16;95566.44;;;7.91;83.47
73564;BME280;61834;50.196;6.454;2022-12-29T11:33:42;95573.44;;;7.78;84.78
73564;BME280;61834;50.196;6.454;2022-12-29T11:39:02;95557.06;;;7.78;85.56
73564;BME280;61834;50.196;6.454;2022-12-29T11:41:29;95561.75;;;7.81;85.93
73564;BME280;61834;50.196;6.454;2022-12-29T11:43:59;95553.97;;;7.80;87.35
73564;BME280;61834;50.196;6.454;2022-12-29T11:46:36;95553.63;;;7.99;86.06
73564;BME280;61834;50.196;6.454;2022-12-29T11:49:04;95547.78;;;7.90;85.33
73564;BME280;61834;50.196;6.454;2022-12-29T11:51:41;95559.47;;;7.97;85.59
73564;BME280;61834;50.196;6.454;2022-12-29T11:54:14;95562.22;;;8.04;85.58
73564;BME280;61834;50.196;6.454;2022-12-29T11:56:43;95547.81;;;8.11;85.68
73564;BME280;61834;50.196;6.454;2022-12-29T12:01:56;95561.03;;;7.88;85.96
73564;BME280;61834;50.196;6.454;2022-12-29T12:04:26;95555.94;;;7.83;87.53
73564;BME280;61834;50.196;6.454;2022-12-29T12:07:08;95562.56;;;7.92;85.02
73564;BME280;61834;50.196;6.454;2022-12-29T12:09:58;95556.78;;;8.08;84.27
73564;BME280;61834;50.196;6.454;2022-12-29T12:12:31;95563.00;;;7.98;85.51
73564;BME280;61834;50.196;6.454;2022-12-29T12:15:03;95559.84;;;7.92;84.74
73564;BME280;61834;50.196;6.454;2022-12-29T12:17:53;95572.28;;;7.83;85.16
73564;BME280;61834;50.196;6.454;2022-12-29T12:20:27;95559.78;;;7.74;85.81
73564;BME280;61834;50.196;6.454;2022-12-29T12:23:12;95559.81;;;7.82;84.00
73564;BME280;61834;50.196;6.454;2022-12-29T12:25:56;95557.47;;;7.80;83.79
73564;BME280;61834;50.196;6.454;2022-12-29T12:30:59;95557.88;;;7.82;83.63
73564;BME280;61834;50.196;6.454;2022-12-29T12:33:42;95562.56;;;7.89;84.13
73564;BME280;61834;50.196;6.454;2022-12-29T12:39:27;95559.47;;;7.97;82.41
73564;BME280;61834;50.196;6.454;2022-12-29T12:44:56;95558.66;;;7.83;83.02
73564;BME280;61834;50.196;6.454;2022-12-29T12:55:53;95559.47;;;7.94;82.02
73564;BME280;61834;50.196;6.454;2022-12-29T12:58:27;95572.72;;;8.02;82.20
73564;BME280;61834;50.196;6.454;2022-12-29T13:04:32;95564.56;;;8.06;80.96
73564;BME280;61834;50.196;6.454;2022-12-29T13:12:21;95565.75;;;8.19;79.25
73564;BME280;61834;50.196;6.454;2022-12-29T13:22:56;95553.66;;;8.09;80.54
73564;BME280;61834;50.196;6.454;2022-12-29T13:26:28;95562.19;;;7.97;80.39
73564;BME280;61834;50.196;6.454;2022-12-29T13:28:35;95548.97;;;7.96;81.29
73564;BME280;61834;50.196;6.454;2022-12-29T13:31:20;95551.66;;;7.89;81.69
73564;BME280;61834;50.196;6.454;2022-12-29T13:34:02;95547.00;;;7.86;84.11
73564;BME280;61834;50.196;6.454;2022-12-29T13:39:15;95562.63;;;8.03;81.10
73564;BME280;61834;50.196;6.454;2022-12-29T13:41:53;95554.09;;;8.29;80.36
73564;BME280;61834;50.196;6.454;2022-12-29T13:44:27;95566.19;;;8.24;80.23
73564;BME280;61834;50.196;6.454;2022-12-29T13:46:56;95576.31;;;8.31;78.12
73564;BME280;61834;50.196;6.454;2022-12-29T13:49:25;95564.97;;;8.22;78.02
73564;BME280;61834;50.196;6.454;2022-12-29T13:51:56;95583.25;;;8.04;80.28
73564;BME280;61834;50.196;6.454;2022-12-29T14:00:03;95585.16;;;8.00;79.30
73564;BME280;61834;50.196;6.454;2022-12-29T14:08:03;95575.81;;;7.94;78.29
73564;BME280;61834;50.196;6.454;2022-12-29T14:10:34;95590.22;;;7.91;78.16
73564;BME280;61834;50.196;6.454;2022-12-29T14:15:39;95581.63;;;7.89;78.58
73564;BME280;61834;50.196;6.454;2022-12-29T14:18:19;95587.53;;;7.98;79.80
73564;BME280;61834;50.196;6.454;2022-12-29T14:23:45;95594.84;;;7.80;79.44
73564;BME280;61834;50.196;6.454;2022-12-29T14:26:43;95595.56;;;7.62;79.61
73564;BME280;61834;50.196;6.454;2022-12-29T14:29:41;95599.13;;;7.77;79.84
73564;BME280;61834;50.196;6.454;2022-12-29T14:34:55;95603.38;;;7.67;78.42
73564;BME280;61834;50.196;6.454;2022-12-29T14:37:25;95602.84;;;7.44;81.09
73564;BME280;61834;50.196;6.454;2022-12-29T14:42:29;95611.88;;;7.59;78.44
73564;BME280;61834;50.196;6.454;2022-12-29T14:45:01;95604.16;;;7.75;78.22
73564;BME280;61834;50.196;6.454;2022-12-29T14:47:33;95619.06;;;8.02;77.69
73564;BME280;61834;50.196;6.454;2022-12-29T14:50:29;95621.34;;;7.93;78.01
73564;BME280;61834;50.196;6.454;2022-12-29T14:53:02;95623.94;;;7.61;79.51
73564;BME280;61834;50.196;6.454;2022-12-29T14:58:25;95616.59;;;7.69;79.24
73564;BME280;61834;50.196;6.454;2022-12-29T15:00:52;95616.91;;;7.53;78.66
73564;BME280;61834;50.196;6.454;2022-12-29T15:05:51;95626.44;;;7.23;81.02
73564;BME280;61834;50.196;6.454;2022-12-29T15:08:21;95622.56;;;7.20;80.31
73564;BME280;61834;50.196;6.454;2022-12-29T15:11:03;95626.44;;;7.16;81.65
73564;BME280;61834;50.196;6.454;2022-12-29T15:13:35;95625.56;;;7.05;81.05
73564;BME280;61834;50.196;6.454;2022-12-29T15:16:02;95633.31;;;6.99;80.60
73564;BME280;61834;50.196;6.454;2022-12-29T15:18:32;95628.28;;;7.05;80.75
73564;BME280;61834;50.196;6.454;2022-12-29T15:21:02;95630.59;;;6.99;80.68
73564;BME280;61834;50.196;6.454;2022-12-29T15:23:31;95628.22;;;6.98;80.71
73564;BME280;61834;50.196;6.454;2022-12-29T15:26:03;95642.94;;;6.90;80.78
73564;BME280;61834;50.196;6.454;2022-12-29T15:28:46;95638.19;;;6.80;81.62
73564;BME280;61834;50.196;6.454;2022-12-29T15:31:16;95634.19;;;6.67;82.53
73564;BME280;61834;50.196;6.454;2022-12-29T15:33:45;95642.75;;;6.65;81.96
73564;BME280;61834;50.196;6.454;2022-12-29T15:36:24;95636.13;;;6.66;82.50
73564;BME280;61834;50.196;6.454;2022-12-29T15:38:51;95642.69;;;6.62;82.42
73564;BME280;61834;50.196;6.454;2022-12-29T15:41:34;95629.41;;;6.53;83.15
73564;BME280;61834;50.196;6.454;2022-12-29T15:44:24;95649.53;;;6.45;83.22
73564;BME280;61834;50.196;6.454;2022-12-29T15:46:50;95656.91;;;6.44;84.02
73564;BME280;61834;50.196;6.454;2022-12-29T15:49:17;95653.06;;;6.46;84.04
73564;BME280;61834;50.196;6.454;2022-12-29T15:51:43;95656.06;;;6.37;84.36
73564;BME280;61834;50.196;6.454;2022-12-29T15:54:16;95654.25;;;6.52;84.14
73564;BME280;61834;50.196;6.454;2022-12-29T15:56:43;95662.75;;;6.47;83.73
73564;BME280;61834;50.196;6.454;2022-12-29T15:59:45;95657.84;;;6.59;83.79
73564;BME280;61834;50.196;6.454;2022-12-29T16:02:11;95652.75;;;6.54;83.91
73564;BME280;61834;50.196;6.454;2022-12-29T16:04:39;95653.84;;;6.50;83.62
73564;BME280;61834;50.196;6.454;2022-12-29T16:07:19;95656.16;;;6.47;84.05
73564;BME280;61834;50.196;6.454;2022-12-29T16:09:47;95662.78;;;6.50;84.39
73564;BME280;61834;50.196;6.454;2022-12-29T16:12:19;95667.47;;;6.53;84.19
73564;BME280;61834;50.196;6.454;2022-12-29T16:14:47;95666.28;;;6.47;85.09
73564;BME280;61834;50.196;6.454;2022-12-29T16:17:17;95677.69;;;6.63;84.55
73564;BME280;61834;50.196;6.454;2022-12-29T16:20:02;95687.84;;;6.70;83.46